Time;durP1;ratioP1;P1;durP2;ratioP2;P2;SDS_P1;SDS_P2;PMS_P1;PMS_P2;Temp;Humidity;BMP_temperature;BMP_pressure;BME280_temperature;BME280_humidity;BME280_pressure;Samples;Min_cycle;Max_cycle;Signal;HPM_P1;HPM_P2
2024/04/12 00:01:39;;;;;;;3.30;2.00;;;;;;;10.09;55.69;100481.13;5496087;26;41120;-81
2024/04/12 00:04:15;;;;;;;4.13;1.70;;;;;;;10.11;56.09;100479.28;5491642;26;41652;-84
2024/04/12 00:06:42;;;;;;;2.10;1.87;;;;;;;10.00;57.92;100452.34;5492667;26;42878;-83
2024/04/12 00:09:17;;;;;;;3.10;2.00;;;;;;;10.09;58.80;100462.59;5491171;26;43095;-86
2024/04/12 00:11:45;;;;;;;2.80;2.20;;;;;;;9.96;57.95;100442.75;5460305;26;38783;-79
2024/04/12 00:14:15;;;;;;;2.07;1.60;;;;;;;10.04;57.43;100446.00;5490963;26;40401;-83
2024/04/12 00:16:43;;;;;;;2.63;2.03;;;;;;;10.05;57.10;100450.38;5490738;26;42529;-85
2024/04/12 00:19:18;;;;;;;2.87;1.83;;;;;;;10.14;56.99;100457.97;5495365;26;42133;-80
2024/04/12 00:21:46;;;;;;;4.57;1.67;;;;;;;10.08;57.00;100444.97;5494039;26;41179;-81
2024/04/12 00:24:17;;;;;;;3.00;1.80;;;;;;;10.08;56.99;100458.22;5463598;26;40681;-81
2024/04/12 00:26:45;;;;;;;1.73;1.43;;;;;;;10.15;56.87;100465.00;5502836;26;42442;-76
2024/04/12 00:29:25;;;;;;;2.03;1.60;;;;;;;10.14;56.25;100455.34;5504607;26;42291;-76
2024/04/12 00:31:54;;;;;;;2.50;1.70;;;;;;;10.02;56.55;100445.19;5504155;26;42352;-80
2024/04/12 00:34:26;;;;;;;1.43;1.33;;;;;;;10.00;56.77;100434.66;5495426;26;40479;-81
2024/04/12 00:36:54;;;;;;;2.07;1.70;;;;;;;10.05;56.91;100447.72;5494329;26;42113;-78
2024/04/12 00:39:35;;;;;;;2.70;1.80;;;;;;;9.99;57.13;100437.38;5494330;26;43466;-82
2024/04/12 00:42:07;;;;;;;3.37;1.90;;;;;;;10.07;57.22;100453.84;5495717;26;40216;-80
2024/04/12 00:44:38;;;;;;;3.23;1.80;;;;;;;9.96;57.11;100437.47;5495266;26;42708;-83
2024/04/12 00:47:10;;;;;;;1.63;1.43;;;;;;;9.90;57.15;100437.66;5495199;26;42875;-80
2024/04/12 00:49:49;;;;;;;4.20;1.80;;;;;;;9.88;57.15;100439.53;5463231;26;42274;-83
2024/04/12 00:52:16;;;;;;;2.50;1.80;;;;;;;9.93;56.98;100459.59;5495414;26;40039;-83
2024/04/12 00:54:46;;;;;;;3.00;1.80;;;;;;;9.59;57.29;100414.91;5495276;26;41856;-82
2024/04/12 00:57:14;;;;;;;1.90;1.60;;;;;;;9.77;57.07;100446.97;5493308;26;43672;-80
2024/04/12 00:59:43;;;;;;;2.33;1.70;;;;;;;9.71;57.14;100440.94;5493319;26;42489;-84
2024/04/12 01:02:10;;;;;;;2.63;1.70;;;;;;;9.71;57.07;100448.88;5495527;26;40041;-83
2024/04/12 01:04:42;;;;;;;2.30;1.23;;;;;;;9.64;57.20;100428.84;5494965;26;41688;-77
2024/04/12 01:07:13;;;;;;;2.67;1.60;;;;;;;9.68;57.26;100438.41;5495090;26;42557;-83
2024/04/12 01:09:44;;;;;;;1.60;1.40;;;;;;;9.53;57.40;100416.88;5494977;26;42171;-80
2024/04/12 01:12:16;;;;;;;2.17;1.43;;;;;;;9.50;57.31;100417.88;5494780;26;39976;-80
2024/04/12 01:14:47;;;;;;;2.80;1.50;;;;;;;9.41;57.70;100402.28;5493413;26;41805;-82
2024/04/12 01:17:13;;;;;;;2.80;1.43;;;;;;;9.53;57.54;100424.81;5494787;26;41583;-79
2024/04/12 01:19:46;;;;;;;3.73;1.53;;;;;;;9.41;57.98;100404.94;5498293;26;42434;-77
2024/04/12 01:22:14;;;;;;;4.00;1.80;;;;;;;9.45;57.81;100414.50;5502081;26;40129;-76
2024/04/12 01:24:47;;;;;;;2.70;1.83;;;;;;;9.33;57.98;100404.31;5504912;26;42157;-80
2024/04/12 01:27:14;;;;;;;1.80;1.53;;;;;;;9.40;57.70;100427.00;5493633;26;41593;-83
2024/04/12 01:29:45;;;;;;;2.37;1.60;;;;;;;9.36;57.92;100420.97;5491950;26;40925;-80
2024/04/12 01:32:12;;;;;;;2.60;1.40;;;;;;;9.32;57.88;100427.25;5495141;26;40204;-81
2024/04/12 01:34:50;;;;;;;1.77;1.40;;;;;;;9.16;57.88;100402.22;5493266;26;41052;-80
2024/04/12 01:37:20;;;;;;;2.43;1.67;;;;;;;9.25;58.35;100431.03;5493437;26;43835;-82
2024/04/12 01:39:54;;;;;;;1.70;1.20;;;;;;;9.14;58.12;100425.22;5494640;26;43044;-86
2024/04/12 01:42:25;;;;;;;2.60;1.73;;;;;;;9.18;58.33;100433.91;5494649;26;39915;-83
2024/04/12 01:47:35;;;;;;;1.93;1.47;;;;;;;9.11;58.60;100443.81;5491388;26;41427;-80
2024/04/12 01:50:02;;;;;;;3.93;1.47;;;;;;;9.08;58.77;100440.38;5492632;26;42493;-83
2024/04/12 01:52:49;;;;;;;2.50;1.80;;;;;;;8.97;58.58;100428.38;5493139;26;40139;-81
2024/04/12 01:55:19;;;;;;;3.40;1.90;;;;;;;9.01;58.66;100439.72;5493051;26;41696;-80
2024/04/12 01:57:51;;;;;;;2.57;1.30;;;;;;;8.81;58.35;100411.25;5492659;26;41658;-83
2024/04/12 02:00:20;;;;;;;2.70;1.50;;;;;;;8.91;58.74;100433.84;5493734;26;42425;-78
2024/04/12 02:02:51;;;;;;;2.00;1.80;;;;;;;8.93;58.76;100437.31;5494581;26;41013;-81
2024/04/12 02:05:28;;;;;;;2.40;1.40;;;;;;;8.90;58.94;100431.28;5493943;26;42897;-82
2024/04/12 02:07:59;;;;;;;2.87;1.20;;;;;;;8.80;58.71;100420.09;5494363;26;43857;-77
2024/04/12 02:10:28;;;;;;;2.80;1.50;;;;;;;8.91;58.91;100436.47;5494188;26;43182;-84
2024/04/12 02:12:59;;;;;;;2.00;1.67;;;;;;;8.74;59.58;100408.84;5494577;26;40174;-80
2024/04/12 02:15:27;;;;;;;2.40;1.70;;;;;;;8.83;59.66;100429.72;5494035;26;41871;-82
2024/04/12 02:17:59;;;;;;;1.37;1.20;;;;;;;8.75;59.55;100414.09;5494196;26;44030;-82
2024/04/12 02:20:33;;;;;;;2.27;1.30;;;;;;;8.90;59.57;100441.84;5493936;26;42407;-77
2024/04/12 02:23:04;;;;;;;2.17;1.43;;;;;;;8.89;59.71;100440.97;5494497;26;39802;-78
2024/04/12 02:25:39;;;;;;;2.10;1.50;;;;;;;8.71;59.88;100412.44;5492302;26;40788;-79
2024/04/12 02:28:11;;;;;;;2.53;1.43;;;;;;;8.87;59.72;100437.50;5494106;26;43846;-79
2024/04/12 02:30:41;;;;;;;2.07;1.40;;;;;;;8.88;60.42;100443.66;5493827;26;42183;-81
2024/04/12 02:33:11;;;;;;;1.97;1.73;;;;;;;8.80;60.59;100425.38;5494202;26;40185;-83
2024/04/12 02:35:41;;;;;;;2.30;1.80;;;;;;;8.83;61.22;100429.72;5493895;26;43146;-81
2024/04/12 02:38:14;;;;;;;2.67;1.90;;;;;;;8.50;63.25;100357.66;5494026;26;43031;-79
2024/04/12 02:40:45;;;;;;;2.87;1.87;;;;;;;8.90;62.80;100432.09;5491699;26;42023;-82
2024/04/12 02:43:16;;;;;;;3.17;1.83;;;;;;;8.92;62.47;100434.69;5492581;26;42474;-80
2024/04/12 02:45:50;;;;;;;3.43;1.97;;;;;;;8.91;62.14;100428.53;5492223;26;40713;-79
2024/04/12 02:48:20;;;;;;;2.53;1.63;;;;;;;8.92;62.01;100435.56;5494100;26;42903;-80
2024/04/12 02:50:48;;;;;;;2.40;1.70;;;;;;;8.89;61.60;100434.81;5493506;26;41995;-84
2024/04/12 02:53:20;;;;;;;1.63;1.53;;;;;;;8.89;61.33;100434.81;5492411;26;39896;-83
2024/04/12 02:56:00;;;;;;;3.10;1.73;;;;;;;8.96;61.59;100439.00;5494239;26;42847;-82
2024/04/12 02:58:37;;;;;;;1.80;1.40;;;;;;;8.84;61.38;100424.38;5493770;26;43017;-83
2024/04/12 03:01:07;;;;;;;2.30;1.70;;;;;;;8.99;61.38;100450.34;5493682;26;42118;-83
2024/04/12 03:03:41;;;;;;;1.50;1.30;;;;;;;8.90;61.41;100432.09;5492162;26;38802;-81
2024/04/12 03:06:10;;;;;;;2.30;1.57;;;;;;;9.02;61.48;100451.16;5493589;26;41494;-87
2024/04/12 03:08:40;;;;;;;2.00;1.40;;;;;;;8.82;61.19;100413.00;5493679;26;42904;-83
2024/04/12 03:11:14;;;;;;;2.90;1.90;;;;;;;8.84;61.23;100424.38;5493686;26;42919;-86
2024/04/12 03:13:45;;;;;;;2.47;1.67;;;;;;;8.95;61.17;100443.41;5493905;26;41038;-79
2024/04/12 03:16:13;;;;;;;1.57;1.43;;;;;;;8.82;62.46;100418.28;5493312;26;41628;-81
2024/04/12 03:18:44;;;;;;;3.37;1.70;;;;;;;8.89;63.01;100433.03;5493691;26;42762;-85
2024/04/12 03:21:13;;;;;;;2.13;1.70;;;;;;;8.88;62.66;100439.22;5493891;26;42209;-80
2024/04/12 03:23:44;;;;;;;3.40;2.00;;;;;;;8.75;62.33;100416.75;5493569;26;41068;-84
2024/04/12 03:26:15;;;;;;;2.20;1.80;;;;;;;8.83;62.43;100441.13;5493220;26;41882;-78
2024/04/12 03:28:48;;;;;;;3.57;2.00;;;;;;;8.73;62.48;100429.13;5493537;26;42716;-83
2024/04/12 03:31:17;;;;;;;4.23;1.60;;;;;;;8.64;62.56;100422.34;5461333;26;42176;-77
2024/04/12 03:33:46;;;;;;;2.07;1.40;;;;;;;8.75;62.49;100453.72;5493544;26;40274;-83
2024/04/12 03:36:39;;;;;;;2.13;1.50;;;;;;;8.63;62.09;100433.81;5491324;26;40402;-81
2024/04/12 03:39:34;;;;;;;2.10;1.63;;;;;;;8.55;62.71;100433.16;5493152;26;42900;-82
2024/04/12 03:42:04;;;;;;;2.00;1.53;;;;;;;8.52;62.45;100428.00;5492748;26;42270;-77
2024/04/12 03:44:34;;;;;;;1.70;1.50;;;;;;;8.60;62.17;100447.09;5491684;26;43062;-77
2024/04/12 03:47:07;;;;;;;1.93;1.47;;;;;;;8.63;62.16;100452.31;5491971;26;41429;-85
2024/04/12 03:49:39;;;;;;;1.83;1.67;;;;;;;8.62;62.30;100447.06;5494095;26;43864;-81
2024/04/12 03:52:11;;;;;;;3.13;1.50;;;;;;;8.62;62.14;100455.00;5490311;26;40547;-83
2024/04/12 03:54:41;;;;;;;2.83;1.40;;;;;;;8.50;62.45;100443.00;5493504;26;39986;-83
2024/04/12 03:57:12;;;;;;;1.90;1.50;;;;;;;8.52;62.06;100438.56;5493640;26;41708;-80
2024/04/12 03:59:43;;;;;;;2.30;1.73;;;;;;;8.57;62.46;100448.97;5493310;26;44947;-82
2024/04/12 04:02:13;;;;;;;1.50;1.40;;;;;;;8.45;62.58;100429.06;5491642;26;42354;-82
2024/04/12 04:04:47;;;;;;;2.07;1.40;;;;;;;8.58;63.15;100442.78;5491488;26;38761;-80
2024/04/12 04:07:15;;;;;;;1.93;1.43;;;;;;;8.56;62.96;100441.94;5491244;26;41750;-80
2024/04/12 04:09:45;;;;;;;3.70;1.60;;;;;;;8.61;62.88;100455.91;5491327;26;43907;-83
2024/04/12 04:12:14;;;;;;;2.00;1.63;;;;;;;8.47;62.74;100431.66;5491503;26;42153;-83
2024/04/12 04:14:48;;;;;;;3.47;1.57;;;;;;;8.57;62.83;100435.75;5491142;26;42109;-82
2024/04/12 04:17:15;;;;;;;3.43;1.73;;;;;;;8.53;63.07;100431.50;5460967;26;40600;-80
2024/04/12 04:19:45;;;;;;;1.50;1.33;;;;;;;8.66;63.36;100456.59;5460915;26;41399;-83
2024/04/12 04:22:21;;;;;;;1.30;1.20;;;;;;;8.64;63.21;100445.25;5490957;26;40840;-81
2024/04/12 04:24:52;;;;;;;2.53;1.40;;;;;;;8.70;62.83;100455.63;5492935;26;41383;-78
2024/04/12 04:27:24;;;;;;;3.20;1.40;;;;;;;8.63;63.02;100432.94;5493929;26;41421;-76
2024/04/12 04:29:55;;;;;;;2.67;1.20;;;;;;;8.70;62.94;100450.34;5502368;26;42879;-77
2024/04/12 04:32:22;;;;;;;1.50;1.40;;;;;;;8.52;62.93;100416.56;5497425;26;43583;-84
2024/04/12 04:34:54;;;;;;;1.63;1.50;;;;;;;8.58;63.08;100419.00;5459953;26;41291;-76
2024/04/12 04:37:26;;;;;;;2.90;1.60;;;;;;;8.58;63.94;100411.94;5492363;26;42779;-83
2024/04/12 04:39:53;;;;;;;2.73;1.90;;;;;;;8.69;64.73;100416.03;5459972;26;41919;-84
2024/04/12 04:42:25;;;;;;;2.73;2.13;;;;;;;8.68;64.64;100409.03;5491998;26;43273;-81
2024/04/12 04:44:52;;;;;;;2.70;2.00;;;;;;;8.75;64.54;100413.22;5491034;26;41234;-87
2024/04/12 04:47:23;;;;;;;5.07;2.40;;;;;;;8.73;64.44;100401.84;5490023;26;42752;-80
2024/04/12 04:49:50;;;;;;;3.20;1.50;;;;;;;8.73;64.34;100392.16;5491129;26;43019;-80
2024/04/12 04:52:20;;;;;;;2.90;1.70;;;;;;;8.79;64.15;100401.63;5489567;26;42644;-81
2024/04/12 04:54:49;;;;;;;2.00;1.80;;;;;;;8.86;63.92;100404.06;5459248;26;38952;-84
2024/04/12 04:57:20;;;;;;;2.33;1.70;;;;;;;8.98;64.25;100429.25;5489149;26;43053;-80
2024/04/12 04:59:49;;;;;;;2.80;2.07;;;;;;;8.82;64.40;100407.69;5494082;26;43828;-77
2024/04/12 05:02:19;;;;;;;3.57;2.00;;;;;;;8.91;64.20;100425.91;5501218;26;42488;-76
2024/04/12 05:04:50;;;;;;;3.23;1.97;;;;;;;8.99;64.54;100442.41;5504728;26;40569;-77
2024/04/12 05:07:19;;;;;;;3.03;1.73;;;;;;;8.99;64.26;100450.34;5495715;26;42176;-80
2024/04/12 05:09:46;;;;;;;2.00;1.80;;;;;;;8.89;64.44;100424.25;5493437;26;42917;-79
2024/04/12 05:12:15;;;;;;;2.97;1.80;;;;;;;9.04;64.77;100422.88;5493209;26;44769;-81
2024/04/12 05:14:54;;;;;;;2.67;2.07;;;;;;;9.07;64.68;100425.44;5494539;26;40103;-80
2024/04/12 05:17:29;;;;;;;2.00;1.70;;;;;;;9.14;64.22;100434.94;5494765;26;42889;-86
2024/04/12 05:19:55;;;;;;;2.97;1.70;;;;;;;9.17;64.13;100424.22;5494408;26;43783;-80
2024/04/12 05:22:26;;;;;;;2.50;1.53;;;;;;;9.27;64.36;100430.97;5494330;26;43406;-80
2024/04/12 05:24:53;;;;;;;3.40;2.00;;;;;;;9.27;64.03;100421.25;5494293;26;42234;-82
2024/04/12 05:27:22;;;;;;;2.60;1.87;;;;;;;9.42;63.73;100427.81;5492780;26;40159;-84
2024/04/12 05:29:48;;;;;;;3.60;2.00;;;;;;;9.39;63.92;100409.44;5492006;26;42657;-85
2024/04/12 05:32:20;;;;;;;3.57;1.87;;;;;;;9.67;63.93;100441.09;5494944;26;43252;-81
2024/04/12 05:34:49;;;;;;;2.43;2.23;;;;;;;9.60;63.71;100419.28;5492854;26;41384;-85
2024/04/12 05:37:20;;;;;;;2.27;1.77;;;;;;;9.75;64.14;100443.50;5482680;26;41834;-78
2024/04/12 05:39:50;;;;;;;3.90;2.10;;;;;;;9.79;64.53;100434.53;5455009;26;42083;-78
2024/04/12 05:42:21;;;;;;;2.60;2.07;;;;;;;9.77;64.37;100417.88;5471239;26;42245;-78
2024/04/12 05:44:49;;;;;;;3.40;1.97;;;;;;;10.02;64.02;100437.22;5492850;26;40133;-80
2024/04/12 05:47:21;;;;;;;3.00;2.07;;;;;;;10.25;63.73;100458.53;5477386;26;42941;-77
2024/04/12 05:49:50;;;;;;;3.37;2.20;;;;;;;10.22;63.44;100426.84;5424723;26;41609;-78
2024/04/12 05:52:22;;;;;;;2.50;1.97;;;;;;;10.62;63.66;100454.53;5468612;26;40892;-77
2024/04/12 05:54:50;;;;;;;3.70;2.00;;;;;;;10.73;63.38;100463.81;5493077;26;40251;-80
2024/04/12 05:57:22;;;;;;;2.37;1.97;;;;;;;10.79;63.58;100457.41;5493710;26;42701;-85
2024/04/12 05:59:50;;;;;;;3.37;2.27;;;;;;;10.81;63.42;100455.56;5491970;26;43712;-82
2024/04/12 06:02:19;;;;;;;2.80;2.00;;;;;;;10.99;63.31;100454.88;5483017;26;40831;-80
2024/04/12 06:04:47;;;;;;;2.83;2.10;;;;;;;11.18;63.12;100456.78;5457008;26;40400;-80
2024/04/12 06:07:19;;;;;;;2.90;2.20;;;;;;;11.22;62.63;100437.19;5462309;26;43661;-81
2024/04/12 06:09:47;;;;;;;3.20;2.00;;;;;;;11.49;62.42;100470.56;5493554;26;42986;-79
2024/04/12 06:12:16;;;;;;;4.37;2.37;;;;;;;11.32;62.42;100443.84;5493076;26;42507;-81
2024/04/12 06:14:43;;;;;;;2.43;2.20;;;;;;;11.57;62.25;100494.13;5490831;26;40010;-80
2024/04/12 06:17:12;;;;;;;2.80;2.03;;;;;;;11.55;62.50;100485.38;5491113;26;40451;-78
2024/04/12 06:19:39;;;;;;;3.40;2.30;;;;;;;11.59;62.56;100471.94;5460908;26;42715;-79
2024/04/12 06:22:13;;;;;;;2.57;2.20;;;;;;;11.97;61.71;100493.41;5491727;26;42181;-80
2024/04/12 06:24:43;;;;;;;4.63;2.23;;;;;;;12.10;61.14;100468.03;5492559;26;41432;-78
2024/04/12 06:27:14;;;;;;;3.93;2.60;;;;;;;12.30;60.84;100465.38;5492970;26;41632;-78
2024/04/12 06:29:44;;;;;;;3.97;2.30;;;;;;;12.27;60.87;100460.19;5490903;26;44204;-77
2024/04/12 06:32:16;;;;;;;5.23;2.60;;;;;;;12.40;60.69;100472.00;5491300;26;43843;-77
2024/04/12 06:34:42;;;;;;;3.80;2.40;;;;;;;12.56;60.88;100483.69;5492439;26;41130;-79
2024/04/12 06:37:15;;;;;;;3.57;2.50;;;;;;;12.68;60.84;100489.38;5490495;26;41326;-77
2024/04/12 06:39:45;;;;;;;3.63;2.40;;;;;;;12.81;60.77;100487.91;5492270;26;42936;-77
2024/04/12 06:42:14;;;;;;;4.27;3.00;;;;;;;12.95;60.05;100472.19;5490440;26;43285;-75
2024/04/12 06:44:48;;;;;;;3.57;2.80;;;;;;;13.37;59.17;100497.72;5489491;26;39783;-75
2024/04/12 06:47:18;;;;;;;3.63;2.33;;;;;;;13.60;58.88;100500.13;5492406;26;42515;-75
2024/04/12 06:49:44;;;;;;;3.50;2.97;;;;;;;13.64;58.82;100489.25;5490051;26;43220;-77
2024/04/12 06:52:20;;;;;;;4.17;2.90;;;;;;;13.91;59.11;100489.69;5491920;26;42573;-75
2024/04/12 06:54:52;;;;;;;4.33;3.07;;;;;;;14.22;58.42;100502.31;5491930;26;40374;-77
2024/04/12 06:57:21;;;;;;;5.23;2.77;;;;;;;14.37;57.53;100493.53;5492575;26;42947;-77
2024/04/12 06:59:54;;;;;;;5.03;2.97;;;;;;;14.52;56.89;100480.38;5491060;26;42838;-77
2024/04/12 07:02:23;;;;;;;6.03;3.20;;;;;;;14.76;57.06;100492.41;5492090;26;42159;-77
2024/04/12 07:04:56;;;;;;;3.13;2.83;;;;;;;15.08;56.51;100496.84;5489870;26;39939;-76
2024/04/12 07:07:24;;;;;;;4.73;2.80;;;;;;;15.49;55.34;100504.38;5460389;26;40664;-77
2024/04/12 07:09:58;;;;;;;4.87;3.00;;;;;;;15.84;54.78;100491.69;5474979;26;43599;-79
2024/04/12 07:12:27;;;;;;;4.33;2.83;;;;;;;16.29;54.41;100508.66;5454621;26;42729;-77
2024/04/12 07:14:57;;;;;;;3.47;2.70;;;;;;;16.39;54.53;100499.13;5468340;26;39879;-77
2024/04/12 07:17:25;;;;;;;4.33;3.33;;;;;;;16.41;54.86;100507.91;5459753;26;41818;-75
2024/04/12 07:19:57;;;;;;;4.47;2.90;;;;;;;16.45;54.84;100504.09;5489785;26;44213;-78
2024/04/12 07:22:26;;;;;;;4.53;3.07;;;;;;;16.65;53.85;100500.25;5492941;26;42466;-78
2024/04/12 07:25:01;;;;;;;4.17;2.70;;;;;;;16.91;53.35;100509.34;5491499;26;40418;-75
2024/04/12 07:27:27;;;;;;;5.33;2.53;;;;;;;17.19;51.87;100517.34;5488103;26;41096;-75
2024/04/12 07:29:57;;;;;;;4.27;2.83;;;;;;;17.48;51.09;100529.75;5490179;26;44704;-78
2024/04/12 07:32:34;;;;;;;7.07;3.13;;;;;;;17.74;49.23;100540.63;5491167;26;42128;-76
2024/04/12 07:35:22;;;;;;;10.00;2.97;;;;;;;17.74;49.22;100508.47;5490096;26;40433;-79
2024/04/12 07:37:49;;;;;;;4.90;2.60;;;;;;;18.10;49.16;100522.09;5491859;26;41786;-76
2024/04/12 07:40:24;;;;;;;4.50;2.97;;;;;;;18.69;49.42;100527.91;5491319;26;42785;-77
2024/04/12 07:42:52;;;;;;;5.87;2.33;;;;;;;19.28;47.58;100539.84;5489887;26;43284;-76
2024/04/12 07:45:23;;;;;;;2.97;2.17;;;;;;;19.54;46.15;100546.00;5489569;26;41310;-75
2024/04/12 07:47:55;;;;;;;3.50;2.43;;;;;;;19.86;44.17;100548.19;5491214;26;20259;-74
2024/04/12 07:50:31;;;;;;;4.20;2.53;;;;;;;20.23;44.00;100548.97;5484911;26;42703;-74
2024/04/12 07:52:59;;;;;;;4.60;3.03;;;;;;;20.52;43.60;100555.75;5454675;26;43338;-76
2024/04/12 07:55:34;;;;;;;3.50;2.20;;;;;;;20.55;43.19;100533.09;5457084;26;42155;-76
2024/04/12 07:58:01;;;;;;;5.03;2.07;;;;;;;20.66;43.95;100542.03;5489446;26;41863;-74
2024/04/12 08:00:45;;;;;;;4.30;2.73;;;;;;;20.70;44.47;100523.81;5490596;26;41646;-85
2024/04/12 08:03:15;;;;;;;3.83;2.40;;;;;;;21.07;44.13;100519.94;5460890;26;42173;-86
2024/04/12 08:05:59;;;;;;;7.63;2.47;;;;;;;21.67;43.11;100548.34;5490760;26;40326;-77
2024/04/12 08:08:28;;;;;;;4.93;2.30;;;;;;;22.71;41.36;100561.25;5492063;26;41781;-83
2024/04/12 08:11:11;;;;;;;3.60;2.57;;;;;;;24.03;40.09;100559.44;5459926;26;41253;-88
2024/04/12 08:13:44;;;;;;;4.37;2.30;;;;;;;25.11;36.61;100569.09;5460523;26;42711;-83
2024/04/12 08:16:14;;;;;;;3.90;2.40;;;;;;;25.55;36.43;100561.22;5490377;26;38446;-88
2024/04/12 08:18:43;;;;;;;2.27;1.83;;;;;;;26.28;35.98;100586.56;5490497;26;40509;-84
2024/04/12 08:21:12;;;;;;;5.23;2.30;;;;;;;27.49;33.85;100579.31;5490145;26;44038;-81
2024/04/12 08:23:43;;;;;;;4.28;2.05;;;;;;;28.52;30.45;100599.97;5489086;26;42263;-81
2024/04/12 08:26:16;;;;;;;4.22;2.25;;;;;;;28.92;31.13;100599.16;5489406;26;40104;-81
2024/04/12 08:28:43;;;;;;;3.80;2.25;;;;;;;29.04;30.54;100620.63;5489981;26;41815;-81
2024/04/12 08:31:13;;;;;;;2.80;2.40;;;;;;;28.76;30.12;100585.47;5491976;26;43574;-81
2024/04/12 08:33:42;;;;;;;5.15;2.45;;;;;;;29.03;30.20;100608.00;5455916;26;42340;-80
2024/04/12 08:36:14;;;;;;;5.03;2.50;;;;;;;29.56;30.53;100616.41;5453794;26;41042;-82
2024/04/12 08:38:54;;;;;;;5.05;2.40;;;;;;;30.46;28.80;100635.16;5490955;26;41407;-78
2024/04/12 08:41:31;;;;;;;2.45;2.05;;;;;;;30.93;28.31;100605.72;5494991;26;44504;-82
2024/04/12 08:43:58;;;;;;;6.10;2.45;;;;;;;31.04;27.01;100629.06;5462480;26;40972;-82
2024/04/12 08:46:33;;;;;;;14.60;2.75;;;;;;;31.05;27.88;100619.81;5494909;26;40830;-81
2024/04/12 08:49:00;;;;;;;4.43;2.47;;;;;;;32.32;26.51;100622.31;5494757;26;41738;-81
2024/04/12 08:51:32;;;;;;;2.58;1.92;;;;;;;34.02;24.06;100623.06;5494734;26;43812;-81
2024/04/12 08:54:04;;;;;;;5.72;2.17;;;;;;;35.88;22.50;100640.41;5492816;26;42283;-82
2024/04/12 08:56:36;;;;;;;3.92;2.10;;;;;;;37.83;20.49;100641.41;5495154;26;41055;-82
2024/04/12 08:59:05;;;;;;;2.33;1.92;;;;;;;39.47;19.13;100658.38;5495113;26;42664;-81
2024/04/12 09:01:40;;;;;;;4.38;2.33;;;;;;;40.59;17.69;100648.84;5494728;26;42594;-81
2024/04/12 09:04:14;;;;;;;2.67;2.35;;;;;;;41.55;16.66;100651.38;5494690;26;42395;-80
2024/04/12 09:06:48;;;;;;;4.50;2.22;;;;;;;41.75;16.92;100650.00;5463158;26;39974;-82
2024/04/12 09:09:15;;;;;;;3.35;2.45;;;;;;;41.52;17.21;100637.97;5492864;26;43297;-84
2024/04/12 09:11:48;;;;;;;3.63;2.35;;;;;;;41.22;17.10;100634.72;5493160;26;41571;-79
2024/04/12 09:14:20;;;;;;;5.60;2.17;;;;;;;41.05;16.79;100634.69;5492660;26;42230;-80
2024/04/12 09:16:55;;;;;;;3.10;2.05;;;;;;;40.40;16.36;100637.13;5493061;26;40188;-84
2024/04/12 09:19:28;;;;;;;5.50;2.30;;;;;;;39.46;17.35;100626.19;5466913;26;40456;-81
2024/04/12 09:22:09;;;;;;;5.15;2.40;;;;;;;38.87;17.69;100609.72;5426484;26;43611;-80
2024/04/12 09:24:39;;;;;;;4.25;2.08;;;;;;;37.88;19.06;100611.09;5482877;26;40891;-83
2024/04/12 09:27:15;;;;;;;4.05;2.22;;;;;;;37.36;19.51;100608.66;5492919;26;40161;-80
2024/04/12 09:29:54;;;;;;;2.75;1.50;;;;;;;37.35;18.50;100611.66;5498163;26;41725;-80
2024/04/12 09:35:14;;;;;;;1.98;1.17;;;;;;;37.56;18.74;100602.09;5472512;26;40788;-80
2024/04/12 09:37:53;;;;;;;2.10;1.50;;;;;;;37.55;18.43;100604.03;5496933;26;41972;-80
2024/04/12 09:40:28;;;;;;;2.97;1.88;;;;;;;37.51;18.58;100599.16;5463144;26;42051;-86
2024/04/12 09:45:52;;;;;;;3.25;1.40;;;;;;;35.92;19.63;100583.75;5461188;26;41911;-90
2024/04/12 10:38:46;;;;;;;1.77;1.00;;;;;;;33.41;23.90;100516.63;5455889;26;42729;-80
2024/04/12 10:41:17;;;;;;;1.73;1.10;;;;;;;33.71;23.72;100519.94;5438723;26;41146;-81
2024/04/12 10:43:46;;;;;;;1.95;1.20;;;;;;;34.14;22.87;100523.25;5492219;26;40935;-89
2024/04/12 10:46:15;;;;;;;1.35;1.00;;;;;;;34.73;22.97;100500.47;5461510;26;40215;-82
2024/04/12 10:48:44;;;;;;;3.40;0.95;;;;;;;35.11;23.31;100492.41;5462218;26;41479;-82
2024/04/12 10:51:17;;;;;;;3.60;1.15;;;;;;;35.25;21.07;100520.72;5491643;26;41247;-81
2024/04/12 10:53:46;;;;;;;1.88;0.90;;;;;;;35.10;21.58;100489.88;5493280;26;40328;-80
2024/04/12 10:56:18;;;;;;;1.33;0.95;;;;;;;35.28;21.53;100499.16;5492399;26;41310;-84
2024/04/12 10:58:51;;;;;;;1.48;0.70;;;;;;;35.76;20.67;100511.69;5493289;26;44186;-82
2024/04/12 11:01:23;;;;;;;1.63;0.98;;;;;;;35.99;20.63;100501.81;5492408;26;42474;-80
2024/04/12 11:03:56;;;;;;;2.10;0.90;;;;;;;36.11;21.84;100487.31;5460325;26;40947;-80
2024/04/12 11:06:31;;;;;;;1.92;1.20;;;;;;;36.41;21.83;100491.16;5460470;26;41759;-86
2024/04/12 11:09:05;;;;;;;2.10;1.00;;;;;;;36.74;20.43;100495.56;5490091;26;42146;-79
2024/04/12 11:11:38;;;;;;;1.27;1.00;;;;;;;36.97;20.11;100462.59;5490311;26;41210;-79
2024/04/12 11:14:15;;;;;;;1.70;0.80;;;;;;;37.97;21.01;100497.09;5492369;26;40059;-79
2024/04/12 11:33:41;;;;;;;1.92;0.85;;;;;;;39.30;19.23;100477.19;5332088;26;43411;-79
2024/04/12 11:36:19;;;;;;;1.92;1.00;;;;;;;40.01;19.41;100477.81;5438087;26;41186;-79
2024/04/12 11:38:47;;;;;;;1.52;0.73;;;;;;;41.18;18.17;100472.25;5478872;26;41888;-81
2024/04/12 11:41:23;;;;;;;1.52;0.70;;;;;;;41.79;17.75;100479.44;5490380;26;42824;-79
2024/04/12 11:43:52;;;;;;;2.75;0.90;;;;;;;41.31;18.10;100465.47;5466479;26;43482;-79
2024/04/12 11:46:23;;;;;;;2.58;0.90;;;;;;;40.68;18.03;100469.56;5423860;26;40422;-75
2024/04/12 11:48:53;;;;;;;2.17;0.95;;;;;;;40.64;18.34;100472.00;5474944;26;41660;-80
2024/04/12 11:51:33;;;;;;;2.35;0.80;;;;;;;40.69;18.08;100471.22;5492234;26;42230;-84
2024/04/12 11:54:00;;;;;;;1.42;0.70;;;;;;;40.38;18.42;100464.34;5491875;26;41870;-81
2024/04/12 11:56:31;;;;;;;1.25;0.90;;;;;;;40.66;18.84;100453.13;5491599;26;40160;-81
2024/04/12 11:58:58;;;;;;;1.52;0.80;;;;;;;41.03;18.24;100455.38;5489723;26;40537;-82
2024/04/12 12:01:28;;;;;;;1.40;0.80;;;;;;;41.49;17.57;100459.59;5491318;26;42957;-76
2024/04/12 12:03:56;;;;;;;1.40;0.88;;;;;;;42.50;16.72;100468.19;5490815;26;42241;-81
2024/04/12 12:06:30;;;;;;;1.10;1.00;;;;;;;43.28;16.30;100455.31;5491472;26;40102;-78
2024/04/12 12:08:57;;;;;;;1.08;0.90;;;;;;;43.81;16.62;100459.69;5490682;26;41680;-79
2024/04/12 12:11:27;;;;;;;1.27;0.70;;;;;;;43.93;16.80;100460.28;5491817;26;42823;-79
2024/04/12 12:13:54;;;;;;;1.85;0.80;;;;;;;44.05;17.11;100446.09;5492012;26;42682;-80
2024/04/12 12:16:28;;;;;;;1.73;0.95;;;;;;;44.65;15.76;100473.19;5492623;26;41511;-79
2024/04/12 12:18:54;;;;;;;1.00;0.80;;;;;;;44.96;15.32;100460.03;5491646;26;43295;-80
2024/04/12 12:21:23;;;;;;;1.25;0.90;;;;;;;45.27;15.58;100462.72;5494036;26;42722;-79
2024/04/12 12:23:53;;;;;;;1.13;0.80;;;;;;;45.73;14.95;100457.78;5487604;26;41980;-80
2024/04/12 12:26:22;;;;;;;2.75;0.65;;;;;;;45.95;14.20;100461.00;5458074;26;39939;-80
2024/04/12 12:28:50;;;;;;;1.95;1.00;;;;;;;46.62;14.83;100450.91;5456676;26;43955;-82
2024/04/12 12:31:20;;;;;;;1.40;0.90;;;;;;;47.07;13.98;100455.25;5492087;26;42790;-81
2024/04/12 12:33:49;;;;;;;2.58;1.08;;;;;;;47.38;14.02;100463.31;5492308;26;40563;-78
2024/04/12 12:36:21;;;;;;;1.88;1.00;;;;;;;47.30;13.26;100449.91;5493824;26;40017;-82
2024/04/12 12:38:48;;;;;;;1.15;0.80;;;;;;;47.64;13.83;100450.59;5491815;26;41698;-80
2024/04/12 12:41:20;;;;;;;1.55;0.80;;;;;;;47.89;12.72;100447.41;5458368;26;43196;-77
2024/04/12 12:43:52;;;;;;;1.45;0.80;;;;;;;47.85;12.87;100440.72;5456776;26;42268;-81
2024/04/12 12:46:24;;;;;;;2.50;0.82;;;;;;;48.19;13.35;100439.66;5456714;26;39697;-81
2024/04/12 12:48:52;;;;;;;1.40;0.77;;;;;;;48.42;13.67;100426.59;5461481;26;42184;-82
2024/04/12 12:51:26;;;;;;;1.98;0.75;;;;;;;48.45;13.18;100421.25;5463914;26;42838;-79
2024/04/12 12:53:53;;;;;;;1.10;0.60;;;;;;;48.51;12.58;100439.66;5456963;26;43400;-78
2024/04/12 12:56:31;;;;;;;1.60;0.70;;;;;;;48.11;12.53;100420.69;5484050;26;40428;-80
2024/04/12 12:58:59;;;;;;;1.10;0.82;;;;;;;47.93;13.46;100427.97;5493463;26;43189;-80
2024/04/12 13:01:34;;;;;;;0.73;0.70;;;;;;;47.67;13.42;100407.84;5493213;26;42590;-80
2024/04/12 13:04:02;;;;;;;1.70;0.80;;;;;;;47.60;13.08;100420.63;5493428;26;42214;-78